createdAt,value
2022-09-15T00:00:38.050Z,100101.03
2022-09-15T00:01:27.180Z,100101.84
2022-09-15T00:02:14.072Z,100097.59
2022-09-15T00:03:00.715Z,100102.94
2022-09-15T00:03:47.842Z,100100.59
2022-09-15T00:04:34.216Z,100110.75
2022-09-15T00:05:21.227Z,100106.97
2022-09-15T00:06:09.707Z,100102.66
2022-09-15T00:06:56.156Z,100103.50
2022-09-15T00:07:42.580Z,100113.38
2022-09-15T00:08:29.172Z,100110.72
2022-09-15T00:09:15.655Z,100109.38
2022-09-15T00:10:03.698Z,100121.97
2022-09-15T00:10:58.446Z,100108.63
2022-09-15T00:11:45.907Z,100116.59
2022-09-15T00:12:33.615Z,100118.75
2022-09-15T00:13:21.630Z,100121.97
2022-09-15T00:14:09.040Z,100118.75
2022-09-15T00:14:56.657Z,100119.03
2022-09-15T00:15:43.389Z,100112.31
2022-09-15T00:16:31.674Z,100116.38
2022-09-15T00:17:18.303Z,100118.75
2022-09-15T00:18:05.060Z,100114.72
2022-09-15T00:18:52.050Z,100120.31
2022-09-15T00:19:38.698Z,100117.94
2022-09-15T00:20:25.245Z,100108.81
2022-09-15T00:21:15.125Z,100114.69
2022-09-15T00:22:01.679Z,100107.84
2022-09-15T00:22:49.019Z,100111.88
2022-09-15T00:23:36.304Z,100113.44
2022-09-15T00:24:22.718Z,100125.72
2022-09-15T00:25:09.379Z,100117.44
2022-09-15T00:25:55.804Z,100119.31
2022-09-15T00:26:42.295Z,100120.66
2022-09-15T00:27:32.460Z,100117.47
2022-09-15T00:28:21.214Z,100120.44
2022-09-15T00:29:09.011Z,100108.16
2022-09-15T00:29:55.425Z,100110.00
2022-09-15T00:30:47.316Z,100115.88
2022-09-15T00:31:33.925Z,100117.22
2022-09-15T00:32:20.832Z,100109.22
2022-09-15T00:33:07.493Z,100111.38
2022-09-15T00:33:58.107Z,100113.47
2022-09-15T00:34:44.591Z,100120.69
2022-09-15T00:35:30.994Z,100108.97
2022-09-15T00:36:19.151Z,100119.88
2022-09-15T00:37:06.212Z,100118.03
2022-09-15T00:37:52.628Z,100114.28
2022-09-15T00:38:39.316Z,100115.66
2022-09-15T00:39:25.854Z,100110.84
2022-09-15T00:40:12.436Z,100116.19
2022-09-15T00:41:00.890Z,100108.97
2022-09-15T00:41:47.335Z,100113.53
2022-09-15T00:42:33.804Z,100116.69
2022-09-15T00:43:40.805Z,100114.59
2022-09-15T00:44:36.058Z,100114.03
2022-09-15T00:45:22.515Z,100123.94
2022-09-15T00:46:09.687Z,100118.34
2022-09-15T00:47:17.783Z,100117.56
2022-09-15T00:48:08.311Z,100119.41
2022-09-15T00:49:01.660Z,100116.50
2022-09-15T00:49:58.397Z,100121.84
2022-09-15T00:50:53.219Z,100123.47
2022-09-15T00:51:48.195Z,100116.53
2022-09-15T00:52:43.655Z,100123.75
2022-09-15T00:53:32.806Z,100117.59
2022-09-15T00:54:26.749Z,100119.22
2022-09-15T00:55:26.506Z,100120.81
2022-09-15T00:56:16.068Z,100117.88
2022-09-15T00:57:08.395Z,100116.28
2022-09-15T00:58:01.449Z,100131.78
2022-09-15T00:58:58.749Z,100124.84
2022-09-15T00:59:48.480Z,100129.09
2022-09-15T01:00:35.374Z,100127.50
2022-09-15T01:01:26.561Z,100129.91
2022-09-15T01:02:21.796Z,100133.91
2022-09-15T01:03:08.338Z,100127.75
2022-09-15T01:03:55.856Z,100128.31
2022-09-15T01:04:42.795Z,100133.94
2022-09-15T01:05:42.769Z,100132.31
2022-09-15T01:06:40.751Z,100127.00
2022-09-15T01:07:52.908Z,100130.19
2022-09-15T01:08:47.183Z,100135.00
2022-09-15T01:09:51.894Z,100136.34
2022-09-15T01:10:41.062Z,100135.25
2022-09-15T01:11:28.008Z,100129.66
2022-09-15T01:12:15.570Z,100133.41
2022-09-15T01:13:07.092Z,100148.06
2022-09-15T01:13:53.530Z,100140.06
2022-09-15T01:14:40.013Z,100142.72
2022-09-15T01:15:58.267Z,100142.44
2022-09-15T01:17:12.013Z,100147.78
2022-09-15T01:18:20.625Z,100146.19
2022-09-15T01:19:25.145Z,100142.47
2022-09-15T01:20:48.969Z,100141.66
2022-09-15T01:21:45.137Z,100138.19
2022-09-15T01:23:08.776Z,100142.75
2022-09-15T01:24:22.914Z,100144.59
2022-09-15T01:25:54.347Z,100140.84
2022-09-15T01:27:30.553Z,100148.59
2022-09-15T01:28:41.850Z,100143.00
2022-09-15T01:29:51.286Z,100139.00
2022-09-15T01:30:42.342Z,100135.25
2022-09-15T01:32:09.762Z,100139.53
2022-09-15T01:33:27.042Z,100144.06
2022-09-15T01:34:20.403Z,100139.81
2022-09-15T01:35:22.341Z,100136.84
2022-09-15T01:36:21.766Z,100141.41
2022-09-15T01:37:17.244Z,100139.81
2022-09-15T01:38:15.276Z,100129.91
2022-09-15T01:39:15.814Z,100134.97
2022-09-15T01:40:03.696Z,100124.06
2022-09-15T01:40:59.478Z,100128.59
2022-09-15T01:41:52.839Z,100130.72
2022-09-15T01:42:42.979Z,100132.31
2022-09-15T01:43:33.643Z,100128.59
2022-09-15T01:44:29.058Z,100126.97
2022-09-15T01:45:24.657Z,100127.25
2022-09-15T01:46:16.675Z,100127.81
2022-09-15T01:47:09.208Z,100127.50
2022-09-15T01:47:59.162Z,100129.38
2022-09-15T01:48:49.337Z,100132.84
2022-09-15T01:49:54.627Z,100132.59
2022-09-15T01:50:47.411Z,100125.94
2022-09-15T01:51:36.790Z,100130.72
2022-09-15T01:52:24.766Z,100130.72
2022-09-15T01:53:21.061Z,100125.91
2022-09-15T01:54:09.189Z,100130.72
2022-09-15T01:55:01.963Z,100125.38
2022-09-15T01:55:55.712Z,100132.84
2022-09-15T01:56:42.196Z,100120.31
2022-09-15T01:57:33.182Z,100128.06
2022-09-15T01:58:21.102Z,100135.00
2022-09-15T01:59:09.403Z,100130.19
2022-09-15T01:59:56.656Z,100128.31
2022-09-15T02:00:53.260Z,100120.84
2022-09-15T02:02:07.257Z,100131.00
2022-09-15T02:03:04.111Z,100128.31
2022-09-15T02:04:04.868Z,100124.84
2022-09-15T02:05:03.374Z,100123.50
2022-09-15T02:06:01.879Z,100133.38
2022-09-15T02:07:07.276Z,100128.84
2022-09-15T02:08:06.926Z,100122.44
2022-09-15T02:09:02.515Z,100128.56
2022-09-15T02:10:09.213Z,100117.34
2022-09-15T02:11:26.511Z,100115.22
2022-09-15T02:12:45.154Z,100111.97
2022-09-15T02:13:39.066Z,100108.81
2022-09-15T02:14:52.091Z,100111.47
2022-09-15T02:15:48.335Z,100109.06
2022-09-15T02:16:36.477Z,100120.00
2022-09-15T02:17:31.166Z,100122.66
2022-09-15T02:18:34.594Z,100117.06
2022-09-15T02:19:32.940Z,100121.09
2022-09-15T02:20:33.189Z,100128.00
2022-09-15T02:21:29.637Z,100124.25
2022-09-15T02:22:24.095Z,100128.56
2022-09-15T02:23:27.533Z,100123.19
2022-09-15T02:24:25.735Z,100129.06
2022-09-15T02:25:18.675Z,100120.81
2022-09-15T02:26:11.582Z,100123.75
2022-09-15T02:27:01.023Z,100126.94
2022-09-15T02:27:52.708Z,100121.09
2022-09-15T02:28:42.103Z,100118.94
2022-09-15T02:29:34.997Z,100124.00
2022-09-15T02:30:22.301Z,100122.66
2022-09-15T02:31:14.921Z,100125.09
2022-09-15T02:32:07.388Z,100132.81
2022-09-15T02:33:09.030Z,100124.53
2022-09-15T02:34:03.570Z,100129.34
2022-09-15T02:34:54.449Z,100129.34
2022-09-15T02:35:42.988Z,100134.91
2022-09-15T02:36:31.203Z,100129.34
2022-09-15T02:37:22.900Z,100130.69
2022-09-15T02:38:11.451Z,100129.09
2022-09-15T02:39:05.627Z,100133.88
2022-09-15T02:39:57.949Z,100132.56
2022-09-15T02:40:44.832Z,100141.91
2022-09-15T02:41:35.237Z,100129.63
2022-09-15T02:42:31.124Z,100131.78
2022-09-15T02:43:18.694Z,100135.00
2022-09-15T02:44:05.829Z,100133.66
2022-09-15T02:44:52.609Z,100136.31
2022-09-15T02:45:39.327Z,100126.72
2022-09-15T02:46:25.875Z,100130.44
2022-09-15T02:47:13.357Z,100136.31
2022-09-15T02:48:00.057Z,100135.00
2022-09-15T02:48:46.607Z,100135.50
2022-09-15T02:49:33.060Z,100132.84
2022-09-15T02:50:20.507Z,100128.31
2022-09-15T02:51:07.001Z,100136.84
2022-09-15T02:51:53.446Z,100142.72
2022-09-15T02:52:39.881Z,100143.00
2022-09-15T02:53:26.285Z,100146.72
2022-09-15T02:54:12.675Z,100136.31
2022-09-15T02:55:00.707Z,100141.66
2022-09-15T02:55:47.085Z,100135.50
2022-09-15T02:56:33.865Z,100141.66
2022-09-15T02:57:20.517Z,100138.47
2022-09-15T02:58:06.945Z,100142.72
2022-09-15T02:58:53.373Z,100139.00
2022-09-15T03:00:03.451Z,100136.31
2022-09-15T03:00:55.597Z,100142.75
2022-09-15T03:01:42.074Z,100131.81
2022-09-15T03:02:28.835Z,100141.66
2022-09-15T03:03:15.375Z,100135.81
2022-09-15T03:04:03.480Z,100141.94
2022-09-15T03:04:50.941Z,100130.72
2022-09-15T03:05:37.345Z,100137.13
2022-09-15T03:06:24.206Z,100142.44
2022-09-15T03:07:10.612Z,100141.38
2022-09-15T03:07:57.269Z,100136.59
2022-09-15T03:08:58.241Z,100141.94
2022-09-15T03:09:45.061Z,100140.31
2022-09-15T03:10:33.397Z,100147.28
2022-09-15T03:11:22.394Z,100144.84
2022-09-15T03:12:09.228Z,100144.06
2022-09-15T03:12:56.153Z,100146.19
2022-09-15T03:13:42.680Z,100143.00
2022-09-15T03:14:29.611Z,100143.00
2022-09-15T03:15:19.749Z,100143.00
2022-09-15T03:16:12.114Z,100146.44
2022-09-15T03:16:59.494Z,100147.78
2022-09-15T03:17:47.680Z,100141.66
2022-09-15T03:18:34.557Z,100148.56
2022-09-15T03:19:20.972Z,100144.84
2022-09-15T03:20:09.683Z,100141.34
2022-09-15T03:20:57.138Z,100141.63
2022-09-15T03:21:43.860Z,100143.75
2022-09-15T03:22:31.079Z,100147.72
2022-09-15T03:23:17.447Z,100138.34
2022-09-15T03:24:04.237Z,100146.34
2022-09-15T03:24:51.761Z,100142.91
2022-09-15T03:25:38.442Z,100146.34
2022-09-15T03:26:25.410Z,100134.06
2022-09-15T03:27:11.956Z,100138.88
2022-09-15T03:27:58.357Z,100138.59
2022-09-15T03:28:44.948Z,100142.34
2022-09-15T03:29:31.555Z,100143.16
2022-09-15T03:30:18.688Z,100144.47
2022-09-15T03:31:08.465Z,100148.19
2022-09-15T03:31:54.970Z,100141.81
2022-09-15T03:32:41.470Z,100138.03
2022-09-15T03:33:29.702Z,100143.38
2022-09-15T03:34:16.463Z,100148.72
2022-09-15T03:35:04.327Z,100136.69
2022-09-15T03:35:52.440Z,100150.56
2022-09-15T03:36:38.962Z,100142.81
2022-09-15T03:37:25.858Z,100147.63
2022-09-15T03:38:14.996Z,100143.34
2022-09-15T03:39:01.914Z,100146.78
2022-09-15T03:39:49.059Z,100157.72
2022-09-15T03:40:36.061Z,100151.03
2022-09-15T03:41:22.501Z,100150.25
2022-09-15T03:42:09.077Z,100152.38
2022-09-15T03:42:55.516Z,100156.09
2022-09-15T03:43:41.988Z,100155.56
2022-09-15T03:44:28.732Z,100155.56
2022-09-15T03:45:15.149Z,100148.63
2022-09-15T03:46:02.452Z,100148.06
2022-09-15T03:46:49.075Z,100151.28
2022-09-15T03:47:35.543Z,100152.34
2022-09-15T03:48:23.354Z,100152.91
2022-09-15T03:49:09.757Z,100144.34
2022-09-15T03:49:56.204Z,100140.63
2022-09-15T03:50:42.977Z,100141.97
2022-09-15T03:51:29.728Z,100142.19
2022-09-15T03:52:16.204Z,100133.41
2022-09-15T03:53:03.317Z,100136.88
2022-09-15T03:53:49.811Z,100129.97
2022-09-15T03:54:36.413Z,100137.69
2022-09-15T03:55:22.870Z,100127.81
2022-09-15T03:56:17.048Z,100132.38
2022-09-15T03:57:04.094Z,100129.69
2022-09-15T03:57:50.540Z,100123.31
2022-09-15T03:58:38.529Z,100132.09
2022-09-15T03:59:24.960Z,100124.09
2022-09-15T04:00:12.082Z,100131.53
2022-09-15T04:00:59.062Z,100129.91
2022-09-15T04:01:46.572Z,100127.78
2022-09-15T04:02:33.098Z,100131.50
2022-09-15T04:03:19.545Z,100137.66
2022-09-15T04:04:06.795Z,100131.00
2022-09-15T04:04:53.267Z,100130.44
2022-09-15T04:05:40.578Z,100137.09
2022-09-15T04:06:27.495Z,100140.81
2022-09-15T04:07:13.993Z,100140.56
2022-09-15T04:08:01.255Z,100136.03
2022-09-15T04:08:49.512Z,100156.28
2022-09-15T04:09:37.237Z,100153.84
2022-09-15T04:10:24.413Z,100153.34
2022-09-15T04:11:13.850Z,100157.63
2022-09-15T04:12:00.573Z,100160.00
2022-09-15T04:12:48.219Z,100148.25
2022-09-15T04:13:36.188Z,100146.91
2022-09-15T04:14:22.610Z,100149.34
2022-09-15T04:15:09.630Z,100138.41
2022-09-15T04:16:04.671Z,100146.38
2022-09-15T04:16:51.237Z,100151.16
2022-09-15T04:17:37.646Z,100154.09
2022-09-15T04:18:24.194Z,100160.19
2022-09-15T04:19:11.277Z,100155.91
2022-09-15T04:19:58.215Z,100156.75
2022-09-15T04:20:44.671Z,100149.81
2022-09-15T04:21:32.222Z,100158.59
2022-09-15T04:22:19.335Z,100161.25
2022-09-15T04:23:06.199Z,100150.59
2022-09-15T04:23:54.053Z,100161.81
2022-09-15T04:24:41.451Z,100158.31
2022-09-15T04:25:27.954Z,100159.38
2022-09-15T04:26:22.498Z,100160.16
2022-09-15T04:27:09.037Z,100159.91
2022-09-15T04:27:57.124Z,100172.44
2022-09-15T04:28:43.593Z,100168.72
2022-09-15T04:29:30.052Z,100170.31
2022-09-15T04:30:16.679Z,100165.78
2022-09-15T04:31:11.016Z,100159.13
2022-09-15T04:31:58.187Z,100165.50
2022-09-15T04:32:44.709Z,100162.06
2022-09-15T04:33:32.262Z,100162.03
2022-09-15T04:34:18.775Z,100159.88
2022-09-15T04:35:05.792Z,100160.44
2022-09-15T04:35:58.853Z,100157.25
2022-09-15T04:36:47.572Z,100161.00
2022-09-15T04:37:34.212Z,100163.69
2022-09-15T04:38:20.636Z,100165.03
2022-09-15T04:39:07.235Z,100166.88
2022-09-15T04:39:53.899Z,100164.00
2022-09-15T04:40:40.315Z,100160.28
2022-09-15T04:41:27.803Z,100160.78
2022-09-15T04:42:15.305Z,100166.69
2022-09-15T04:43:01.712Z,100159.22
2022-09-15T04:43:48.630Z,100164.31
2022-09-15T04:44:35.281Z,100162.69
2022-09-15T04:45:21.694Z,100157.38
2022-09-15T04:46:08.277Z,100170.97
2022-09-15T04:46:54.939Z,100163.28
2022-09-15T04:47:41.728Z,100164.31
2022-09-15T04:48:31.637Z,100157.63
2022-09-15T04:49:18.044Z,100171.47
2022-09-15T04:50:04.847Z,100158.16
2022-09-15T04:50:52.176Z,100165.09
2022-09-15T04:51:38.788Z,100164.59
2022-09-15T04:52:25.239Z,100163.50
2022-09-15T04:53:11.665Z,100161.13
2022-09-15T04:53:58.623Z,100164.59
2022-09-15T04:54:45.529Z,100158.19
2022-09-15T04:55:33.445Z,100153.97
2022-09-15T04:56:23.375Z,100156.91
2022-09-15T04:57:10.098Z,100154.50
2022-09-15T04:57:57.859Z,100155.03
2022-09-15T04:58:52.198Z,100149.22
2022-09-15T04:59:38.757Z,100154.78
2022-09-15T05:00:26.412Z,100155.63
2022-09-15T05:01:15.497Z,100157.22
2022-09-15T05:02:02.276Z,100148.94
2022-09-15T05:02:48.749Z,100151.59
2022-09-15T05:03:38.311Z,100154.53
2022-09-15T05:04:24.792Z,100155.84
2022-09-15T05:05:11.250Z,100158.53
2022-09-15T05:05:57.705Z,100153.47
2022-09-15T05:06:44.168Z,100156.97
2022-09-15T05:07:30.603Z,100156.69
2022-09-15T05:08:18.338Z,100154.84
2022-09-15T05:09:10.198Z,100157.25
2022-09-15T05:09:57.127Z,100159.66
2022-09-15T05:10:43.582Z,100149.00
2022-09-15T05:11:30.998Z,100158.88
2022-09-15T05:12:17.469Z,100153.53
2022-09-15T05:13:03.933Z,100161.53
2022-09-15T05:13:50.955Z,100155.38
2022-09-15T05:14:37.387Z,100157.00
2022-09-15T05:15:24.140Z,100161.00
2022-09-15T05:16:14.231Z,100164.22
2022-09-15T05:17:00.950Z,100159.94
2022-09-15T05:17:47.537Z,100163.44
2022-09-15T05:18:34.999Z,100167.47
2022-09-15T05:19:21.625Z,100157.56
2022-09-15T05:20:08.409Z,100163.22
2022-09-15T05:20:59.744Z,100162.94
2022-09-15T05:21:46.422Z,100156.00
2022-09-15T05:22:32.842Z,100158.63
2022-09-15T05:23:19.267Z,100162.34
2022-09-15T05:24:05.942Z,100168.28
2022-09-15T05:24:52.461Z,100161.09
2022-09-15T05:25:40.057Z,100161.91
2022-09-15T05:26:29.876Z,100163.22
2022-09-15T05:27:16.795Z,100160.84
2022-09-15T05:28:03.217Z,100166.16
2022-09-15T05:28:50.185Z,100161.91
2022-09-15T05:29:36.565Z,100167.50
2022-09-15T05:30:37.714Z,100171.22
2022-09-15T05:31:31.485Z,100170.72
2022-09-15T05:32:18.005Z,100172.84
2022-09-15T05:33:05.518Z,100169.38
2022-09-15T05:33:53.000Z,100177.13
2022-09-15T05:34:39.389Z,100165.38
2022-09-15T05:35:25.818Z,100166.72
2022-09-15T05:36:14.264Z,100173.13
2022-09-15T05:37:01.041Z,100172.06
2022-09-15T05:37:47.435Z,100168.31
2022-09-15T05:38:34.406Z,100173.38
2022-09-15T05:39:20.817Z,100170.72
2022-09-15T05:40:10.313Z,100170.19
2022-09-15T05:41:23.641Z,100171.28
2022-09-15T05:42:10.245Z,100174.19
2022-09-15T05:42:57.434Z,100167.50
2022-09-15T05:43:46.021Z,100173.13
2022-09-15T05:44:32.553Z,100170.22
2022-09-15T05:45:18.987Z,100165.94
2022-09-15T05:46:07.564Z,100161.41
2022-09-15T05:46:54.315Z,100166.72
2022-09-15T05:47:41.017Z,100164.34
2022-09-15T05:48:28.796Z,100172.06
2022-09-15T05:49:15.565Z,100168.06
2022-09-15T05:50:02.041Z,100167.53
2022-09-15T05:50:53.648Z,100171.00
2022-09-15T05:51:40.396Z,100175.28
2022-09-15T05:52:26.938Z,100172.09
2022-09-15T05:53:13.336Z,100169.66
2022-09-15T05:54:00.207Z,100176.63
2022-09-15T05:54:46.586Z,100175.81
2022-09-15T05:55:37.982Z,100175.00
2022-09-15T05:56:24.525Z,100179.28
2022-09-15T05:57:10.915Z,100176.59
2022-09-15T05:57:57.455Z,100178.22
2022-09-15T05:58:46.746Z,100171.81
2022-09-15T05:59:35.924Z,100172.09
2022-09-15T06:00:23.284Z,100177.16
2022-09-15T06:01:19.663Z,100180.63
2022-09-15T06:02:06.366Z,100182.50
2022-09-15T06:02:53.872Z,100186.75
2022-09-15T06:03:40.645Z,100189.69
2022-09-15T06:04:28.487Z,100190.75
2022-09-15T06:05:14.886Z,100190.50
2022-09-15T06:06:03.442Z,100193.16
2022-09-15T06:06:49.886Z,100196.63
2022-09-15T06:07:36.374Z,100186.72
2022-09-15T06:08:22.799Z,100189.94
2022-09-15T06:09:09.547Z,100189.16
2022-09-15T06:09:56.178Z,100189.16
2022-09-15T06:10:42.672Z,100188.63
2022-09-15T06:11:33.710Z,100203.56
2022-09-15T06:12:20.336Z,100192.06
2022-09-15T06:13:07.041Z,100190.50
2022-09-15T06:13:54.461Z,100191.56
2022-09-15T06:14:44.296Z,100192.59
2022-09-15T06:15:31.909Z,100199.28
2022-09-15T06:16:21.659Z,100196.88
2022-09-15T06:17:08.483Z,100200.34
2022-09-15T06:17:54.920Z,100196.09
2022-09-15T06:18:42.117Z,100202.50
2022-09-15T06:19:28.677Z,100204.34
2022-09-15T06:20:15.420Z,100208.09
2022-09-15T06:21:10.560Z,100208.88
2022-09-15T06:21:56.961Z,100200.06
2022-09-15T06:22:43.362Z,100208.59
2022-09-15T06:23:30.035Z,100196.88
2022-09-15T06:24:16.535Z,100202.22
2022-09-15T06:25:03.082Z,100199.78
2022-09-15T06:25:49.522Z,100206.19
2022-09-15T06:26:35.988Z,100204.06
2022-09-15T06:27:22.572Z,100206.75
2022-09-15T06:28:09.494Z,100207.53
2022-09-15T06:29:01.467Z,100207.25
2022-09-15T06:29:48.664Z,100215.28
2022-09-15T06:30:35.429Z,100204.84
2022-09-15T06:31:23.095Z,100204.84
2022-09-15T06:32:09.765Z,100208.59
2022-09-15T06:32:56.385Z,100212.31
2022-09-15T06:33:48.234Z,100209.66
2022-09-15T06:34:34.818Z,100210.47
2022-09-15T06:35:21.302Z,100209.41
2022-09-15T06:36:08.206Z,100214.50
2022-09-15T06:36:54.661Z,100216.88
2022-09-15T06:37:41.045Z,100210.72
2022-09-15T06:38:27.471Z,100213.38
2022-09-15T06:39:14.124Z,100215.81
2022-09-15T06:40:01.769Z,100213.41
2022-09-15T06:40:56.337Z,100206.94
2022-09-15T06:42:01.419Z,100212.28
2022-09-15T06:42:49.033Z,100218.66
2022-09-15T06:43:36.212Z,100217.59
2022-09-15T06:44:22.659Z,100218.94
2022-09-15T06:45:09.505Z,100218.13
2022-09-15T06:46:04.151Z,100218.59
2022-09-15T06:46:50.895Z,100215.91
2022-09-15T06:47:37.288Z,100218.59
2022-09-15T06:48:25.124Z,100218.84
2022-09-15T06:49:12.122Z,100220.72
2022-09-15T06:49:59.662Z,100227.69
2022-09-15T06:50:53.886Z,100224.97
2022-09-15T06:51:40.665Z,100225.22
2022-09-15T06:52:27.797Z,100226.56
2022-09-15T06:53:14.273Z,100227.84
2022-09-15T06:54:02.734Z,100224.06
2022-09-15T06:54:50.132Z,100221.91
2022-09-15T06:55:36.602Z,100225.34
2022-09-15T06:56:23.945Z,100220.47
2022-09-15T06:57:10.509Z,100227.47
2022-09-15T06:57:56.919Z,100228.03
2022-09-15T06:58:44.906Z,100228.59
2022-09-15T06:59:31.636Z,100228.53
2022-09-15T07:00:20.098Z,100224.25
2022-09-15T07:01:10.101Z,100228.47
2022-09-15T07:01:57.525Z,100220.16
2022-09-15T07:02:49.228Z,100225.47
2022-09-15T07:03:37.541Z,100223.81
2022-09-15T07:04:24.152Z,100227.78
2022-09-15T07:05:10.974Z,100221.78
2022-09-15T07:05:59.361Z,100225.53
2022-09-15T07:06:46.047Z,100221.78
2022-09-15T07:07:32.465Z,100231.09
2022-09-15T07:08:18.931Z,100229.03
2022-09-15T07:09:06.420Z,100233.91
2022-09-15T07:09:52.991Z,100230.78
2022-09-15T07:10:43.097Z,100231.31
2022-09-15T07:11:30.832Z,100238.41
2022-09-15T07:12:17.294Z,100236.84
2022-09-15T07:13:03.859Z,100234.88
2022-09-15T07:13:51.685Z,100239.72
2022-09-15T07:14:38.197Z,100244.78
2022-09-15T07:15:25.943Z,100247.34
2022-09-15T07:16:14.532Z,100237.75
2022-09-15T07:17:00.993Z,100239.09
2022-09-15T07:17:47.391Z,100244.50
2022-09-15T07:18:38.581Z,100251.41
2022-09-15T07:19:27.920Z,100249.31
2022-09-15T07:20:14.452Z,100255.47
2022-09-15T07:21:04.852Z,100246.63
2022-09-15T07:21:52.742Z,100243.13
2022-09-15T07:22:39.169Z,100251.97
2022-09-15T07:23:25.881Z,100240.22
2022-09-15T07:24:12.993Z,100243.09
2022-09-15T07:24:59.436Z,100244.94
2022-09-15T07:25:45.978Z,100248.16
2022-09-15T07:26:33.769Z,100244.88
2022-09-15T07:27:22.528Z,100247.66
2022-09-15T07:28:08.959Z,100251.94
2022-09-15T07:29:01.654Z,100255.31
2022-09-15T07:29:48.054Z,100263.59
2022-09-15T07:30:35.355Z,100251.81
2022-09-15T07:31:24.614Z,100249.09
2022-09-15T07:32:11.100Z,100253.00
2022-09-15T07:32:57.667Z,100247.66
2022-09-15T07:33:44.943Z,100252.13
2022-09-15T07:34:31.655Z,100251.81
2022-09-15T07:35:18.636Z,100251.00
2022-09-15T07:36:07.543Z,100259.09
2022-09-15T07:36:53.970Z,100254.72
2022-09-15T07:37:40.422Z,100257.75
2022-09-15T07:38:27.105Z,100250.66
2022-09-15T07:39:13.747Z,100252.28
2022-09-15T07:40:00.351Z,100263.59
2022-09-15T07:40:48.986Z,100254.78
2022-09-15T07:41:35.528Z,100253.22
2022-09-15T07:42:21.967Z,100254.72
2022-09-15T07:43:08.525Z,100252.22
2022-09-15T07:43:57.621Z,100260.56
2022-09-15T07:44:44.433Z,100256.47
2022-09-15T07:45:31.753Z,100252.44
2022-09-15T07:46:20.104Z,100251.59
2022-09-15T07:47:06.554Z,100258.94
2022-09-15T07:47:52.979Z,100252.81
2022-09-15T07:48:39.532Z,100257.06
2022-09-15T07:49:26.446Z,100256.81
2022-09-15T07:50:14.266Z,100250.66
2022-09-15T07:51:00.790Z,100256.66
2022-09-15T07:51:47.174Z,100254.69
2022-09-15T07:52:33.669Z,100252.00
2022-09-15T07:53:20.998Z,100260.22
2022-09-15T07:54:07.491Z,100263.13
2022-09-15T07:54:54.028Z,100260.91
2022-09-15T07:55:40.584Z,100256.75
2022-09-15T07:56:27.324Z,100258.34
2022-09-15T07:57:14.138Z,100262.78
2022-09-15T07:58:01.145Z,100256.56
2022-09-15T07:58:49.032Z,100258.13
2022-09-15T07:59:39.330Z,100270.38
2022-09-15T08:00:27.975Z,100272.13
2022-09-15T08:01:16.226Z,100273.06
2022-09-15T08:02:02.788Z,100272.34
2022-09-15T08:02:49.495Z,100270.16
2022-09-15T08:03:39.402Z,100277.41
2022-09-15T08:04:25.909Z,100276.63
2022-09-15T08:05:12.341Z,100280.31
2022-09-15T08:06:00.274Z,100277.41
2022-09-15T08:06:46.675Z,100273.09
2022-09-15T08:07:33.160Z,100276.13
2022-09-15T08:08:19.639Z,100276.34
2022-09-15T08:09:06.284Z,100278.22
2022-09-15T08:09:52.810Z,100277.88
2022-09-15T08:10:41.672Z,100269.44
2022-09-15T08:11:28.862Z,100274.56
2022-09-15T08:12:15.509Z,100268.59
2022-09-15T08:13:01.901Z,100275.75
2022-09-15T08:13:50.345Z,100278.38
2022-09-15T08:14:37.010Z,100282.88
2022-09-15T08:15:23.737Z,100285.84
2022-09-15T08:16:15.972Z,100287.38
2022-09-15T08:17:08.134Z,100284.94
2022-09-15T08:17:57.177Z,100287.50
2022-09-15T08:18:44.627Z,100291.03
2022-09-15T08:19:33.420Z,100283.38
2022-09-15T08:20:20.637Z,100287.63
2022-09-15T08:21:10.732Z,100286.94
2022-09-15T08:21:57.295Z,100287.16
2022-09-15T08:22:45.500Z,100282.06
2022-09-15T08:23:32.439Z,100290.66
2022-09-15T08:24:19.252Z,100302.34
2022-09-15T08:25:06.718Z,100299.75
2022-09-15T08:25:53.231Z,100294.56
2022-09-15T08:26:39.971Z,100301.66
2022-09-15T08:27:26.399Z,100313.47
2022-09-15T08:28:12.851Z,100309.63
2022-09-15T08:28:59.311Z,100309.16
2022-09-15T08:29:45.874Z,100310.16
2022-09-15T08:30:32.803Z,100311.03
2022-09-15T08:31:19.576Z,100316.13
2022-09-15T08:32:06.100Z,100314.19
2022-09-15T08:32:53.189Z,100309.63
2022-09-15T08:33:45.440Z,100310.78
2022-09-15T08:34:32.282Z,100321.25
2022-09-15T08:35:19.690Z,100314.84
2022-09-15T08:36:12.292Z,100322.53
2022-09-15T08:36:58.771Z,100320.06
2022-09-15T08:37:47.123Z,100323.69
2022-09-15T08:38:34.515Z,100326.59
2022-09-15T08:39:20.972Z,100322.34
2022-09-15T08:40:16.746Z,100324.13
2022-09-15T08:41:07.558Z,100321.97
2022-09-15T08:41:55.809Z,100322.13
2022-09-15T08:42:46.491Z,100319.66
2022-09-15T08:43:43.971Z,100330.41
2022-09-15T08:44:43.774Z,100326.78
2022-09-15T08:45:47.740Z,100330.56
2022-09-15T08:46:47.748Z,100327.03
2022-09-15T08:47:40.689Z,100326.28
2022-09-15T08:48:34.252Z,100326.88
2022-09-15T08:49:47.544Z,100327.81
2022-09-15T08:50:41.688Z,100333.84
2022-09-15T08:51:41.595Z,100335.44
2022-09-15T08:52:41.470Z,100337.38
2022-09-15T08:53:38.398Z,100324.56
2022-09-15T08:54:29.151Z,100335.53
2022-09-15T08:55:37.658Z,100344.66
2022-09-15T08:56:24.301Z,100331.53
2022-09-15T08:57:18.975Z,100336.91
2022-09-15T08:58:06.284Z,100344.41
2022-09-15T08:58:53.021Z,100343.09
2022-09-15T08:59:40.015Z,100345.19
2022-09-15T09:00:27.237Z,100345.72
2022-09-15T09:01:19.744Z,100348.38
2022-09-15T09:02:12.236Z,100350.63
2022-09-15T09:03:44.997Z,100346.06
2022-09-15T09:04:47.612Z,100346.91
2022-09-15T09:05:49.687Z,100350.53
2022-09-15T09:06:43.248Z,100347.56
2022-09-15T09:08:22.780Z,100348.28
2022-09-15T09:09:09.379Z,100348.06
2022-09-15T09:10:24.682Z,100346.88
2022-09-15T09:11:34.872Z,100344.19
2022-09-15T09:13:05.689Z,100345.88
2022-09-15T09:14:17.649Z,100350.38
2022-09-15T09:15:39.523Z,100339.63
2022-09-15T09:17:05.437Z,100343.34
2022-09-15T09:18:20.992Z,100350.03
2022-09-15T09:19:35.758Z,100344.00
2022-09-15T09:20:29.252Z,100351.50
2022-09-15T09:21:27.608Z,100352.22
2022-09-15T09:22:19.875Z,100346.09
2022-09-15T09:23:15.871Z,100351.84
2022-09-15T09:24:25.427Z,100351.84
2022-09-15T09:25:27.070Z,100352.72
2022-09-15T09:26:14.584Z,100361.06
2022-09-15T09:27:01.098Z,100359.69
2022-09-15T09:27:49.099Z,100361.94
2022-09-15T09:28:46.219Z,100363.41
2022-09-15T09:29:44.688Z,100352.50
2022-09-15T09:30:36.109Z,100362.88
2022-09-15T09:31:25.679Z,100368.09
2022-09-15T09:32:21.968Z,100375.88
2022-09-15T09:33:34.339Z,100369.81
2022-09-15T09:34:54.161Z,100365.72
2022-09-15T09:35:40.556Z,100368.41